Rechercher aéroport 
image banner adimage banner adimage banner ad
image banner ad

CA00 - Platform Hermosa

Situé à Santa Maria, United States

ICAO - CA00, IATA -

Données fournies par Airmate  

Information générale

Coordonnées: N34°27'20" W120°38'52"
Élévation : 152 feet MSL.
Variation magnétique : 14° East
Voir autres Aéroports à California

Données opérationnelles

Special qualification required
Heure actuelle UTC:
Heure actuelle locale:
Météo à : KLPC - Lompoc ( 29 km )
METAR: KLPC 251156Z AUTO 34003KT 10SM OVC004 13/12 A2998 RMK AO2 SLP155 T01330117 10139 20133 55001
Voir NOTAMs / SUP AIP / TFR affectant cet aéroport [VIEW]
Fréquences de communication: [VIEW]

Pistes:

Coordonnées de l'aéroport

Adresse: Santa Maria United States

Vue satellite de CA00